createdAt,value
2023-02-01T00:07:23.686Z,570.5567
2023-02-01T00:22:25.956Z,226.95479
2023-02-01T00:37:28.177Z,98.8965
2023-02-01T00:52:30.499Z,26.62598
2023-02-01T01:07:32.814Z,3.80371
2023-02-01T01:22:35.033Z,0
2023-02-01T01:37:37.257Z,0
2023-02-01T01:52:39.475Z,0
2023-02-01T02:07:41.651Z,0
2023-02-01T02:22:44.020Z,0
2023-02-01T02:37:46.298Z,0
2023-02-01T02:52:48.491Z,0
2023-02-01T03:07:50.713Z,0
2023-02-01T03:22:52.971Z,0
2023-02-01T03:37:55.263Z,0
2023-02-01T03:52:57.595Z,0
2023-02-01T04:07:59.864Z,0
2023-02-01T04:23:02.159Z,0
2023-02-01T04:38:04.391Z,0
2023-02-01T04:53:06.656Z,0
2023-02-01T05:08:08.934Z,0
2023-02-01T05:23:11.204Z,0
2023-02-01T05:38:13.586Z,0
2023-02-01T05:53:15.923Z,0
2023-02-01T06:08:18.221Z,0
2023-02-01T06:23:20.702Z,0
2023-02-01T06:38:22.983Z,0
2023-02-01T06:53:25.231Z,0
2023-02-01T07:08:27.436Z,0
2023-02-01T07:23:29.731Z,0
2023-02-01T07:38:32.261Z,0
2023-02-01T07:53:34.528Z,0
2023-02-01T08:08:36.795Z,0
2023-02-01T08:23:39.209Z,0
2023-02-01T08:38:41.437Z,0
2023-02-01T08:53:43.783Z,0
2023-02-01T09:08:46.181Z,0
2023-02-01T09:23:48.374Z,0
2023-02-01T09:38:53.185Z,0
2023-02-01T09:53:55.885Z,0
2023-02-01T10:08:58.092Z,0
2023-02-01T10:24:03.570Z,0
2023-02-01T10:39:11.362Z,0
2023-02-01T10:54:13.644Z,0
2023-02-01T11:09:15.715Z,0
2023-02-01T11:24:17.948Z,0
2023-02-01T11:39:20.220Z,0
2023-02-01T11:54:22.540Z,0
2023-02-01T12:09:24.782Z,0
2023-02-01T12:24:27.031Z,0
2023-02-01T12:39:29.406Z,0
2023-02-01T12:54:31.700Z,0
2023-02-01T13:09:33.918Z,0
2023-02-01T13:24:36.163Z,0
2023-02-01T13:39:38.669Z,0
2023-02-01T13:54:40.997Z,0
2023-02-01T14:09:43.338Z,0
2023-02-01T14:24:45.664Z,0
2023-02-01T14:39:47.954Z,0
2023-02-01T14:54:50.196Z,2.53581
2023-02-01T15:09:52.436Z,30.42969
2023-02-01T15:24:54.689Z,134.3978
2023-02-01T15:39:56.947Z,267.52771
2023-02-01T15:54:59.261Z,718.90143
2023-02-01T16:10:01.566Z,1066.30713
2023-02-01T16:25:03.887Z,1417.51648
2023-02-01T16:40:06.346Z,1985.53735
2023-02-01T16:55:08.738Z,2017.23499
2023-02-01T17:10:12.479Z,2287.29858
2023-02-01T17:25:16.009Z,2600.4707
2023-02-01T17:40:18.266Z,3008.73584
2023-02-01T17:55:20.615Z,3198.92139
2023-02-01T18:10:22.919Z,4801.55176
2023-02-01T18:25:25.695Z,4611.36621
2023-02-01T18:40:28.069Z,4469.36084
2023-02-01T18:55:30.518Z,5848.84033
2023-02-01T19:10:32.785Z,5827.28564
2023-02-01T19:25:35.001Z,7594.74365
2023-02-01T19:40:37.440Z,5987.04199
2023-02-01T19:55:39.694Z,4629.1167
2023-02-01T20:10:41.087Z,4333.69531
2023-02-01T20:25:44.422Z,4677.29736
2023-02-01T20:40:46.739Z,5555.95459
2023-02-01T20:55:48.956Z,5025.9707
2023-02-01T21:10:51.299Z,4759.71094
2023-02-01T21:25:53.467Z,5088.09814
2023-02-01T21:40:55.851Z,4818.03467
2023-02-01T21:55:58.075Z,5910.96777
2023-02-01T22:11:00.276Z,5534.3999
2023-02-01T22:26:02.654Z,4668.42188
2023-02-01T22:41:05.015Z,3050.57666
2023-02-01T22:56:07.364Z,2485.09155
2023-02-01T23:11:09.704Z,1952.5719
2023-02-01T23:26:12.039Z,2098.38086
2023-02-01T23:41:14.258Z,1787.74438
2023-02-01T23:56:16.509Z,1037.14526
